sensor_id;sensor_type;location;lat;lon;timestamp;P1;durP1;ratioP1;P2;durP2;ratioP2
27187;SDS011;14708;50.872;5.306;2022-09-03T00:07:56;3.70;;;2.30;;
27187;SDS011;14708;50.872;5.306;2022-09-03T00:13:37;2.42;;;2.22;;
27187;SDS011;14708;50.872;5.306;2022-09-03T00:16:10;3.20;;;2.15;;
27187;SDS011;14708;50.872;5.306;2022-09-03T00:18:44;3.10;;;1.92;;
27187;SDS011;14708;50.872;5.306;2022-09-03T00:21:19;2.47;;;1.90;;
27187;SDS011;14708;50.872;5.306;2022-09-03T00:23:57;2.53;;;1.90;;
27187;SDS011;14708;50.872;5.306;2022-09-03T00:26:27;2.65;;;2.22;;
27187;SDS011;14708;50.872;5.306;2022-09-03T00:29:18;2.75;;;2.00;;
27187;SDS011;14708;50.872;5.306;2022-09-03T00:31:46;2.58;;;1.98;;
27187;SDS011;14708;50.872;5.306;2022-09-03T00:34:18;3.38;;;2.50;;
27187;SDS011;14708;50.872;5.306;2022-09-03T00:36:51;2.40;;;2.13;;
27187;SDS011;14708;50.872;5.306;2022-09-03T00:39:18;2.75;;;2.42;;
27187;SDS011;14708;50.872;5.306;2022-09-03T00:44:43;3.45;;;2.08;;
27187;SDS011;14708;50.872;5.306;2022-09-03T00:50:31;3.42;;;2.45;;
27187;SDS011;14708;50.872;5.306;2022-09-03T00:55:57;2.22;;;1.95;;
27187;SDS011;14708;50.872;5.306;2022-09-03T00:58:58;2.90;;;2.47;;
27187;SDS011;14708;50.872;5.306;2022-09-03T01:01:39;2.65;;;2.10;;
27187;SDS011;14708;50.872;5.306;2022-09-03T01:12:48;2.80;;;2.38;;
27187;SDS011;14708;50.872;5.306;2022-09-03T01:36:55;2.15;;;1.80;;
27187;SDS011;14708;50.872;5.306;2022-09-03T01:50:24;2.53;;;2.17;;
27187;SDS011;14708;50.872;5.306;2022-09-03T01:53:12;2.70;;;2.35;;
27187;SDS011;14708;50.872;5.306;2022-09-03T01:58:34;3.90;;;1.98;;
27187;SDS011;14708;50.872;5.306;2022-09-03T02:01:31;2.53;;;2.17;;
27187;SDS011;14708;50.872;5.306;2022-09-03T02:04:01;2.03;;;1.80;;
27187;SDS011;14708;50.872;5.306;2022-09-03T02:06:37;2.50;;;2.15;;
27187;SDS011;14708;50.872;5.306;2022-09-03T02:09:03;2.80;;;1.92;;
27187;SDS011;14708;50.872;5.306;2022-09-03T02:11:29;2.25;;;1.92;;
27187;SDS011;14708;50.872;5.306;2022-09-03T02:13:54;2.22;;;1.83;;
27187;SDS011;14708;50.872;5.306;2022-09-03T02:16:24;2.15;;;1.80;;
27187;SDS011;14708;50.872;5.306;2022-09-03T02:18:56;1.83;;;1.67;;
27187;SDS011;14708;50.872;5.306;2022-09-03T02:21:24;2.17;;;1.70;;
27187;SDS011;14708;50.872;5.306;2022-09-03T02:23:54;1.92;;;1.73;;
27187;SDS011;14708;50.872;5.306;2022-09-03T02:26:21;1.63;;;1.52;;
27187;SDS011;14708;50.872;5.306;2022-09-03T02:28:48;3.15;;;1.90;;
27187;SDS011;14708;50.872;5.306;2022-09-03T02:31:15;3.42;;;2.20;;
27187;SDS011;14708;50.872;5.306;2022-09-03T02:33:43;3.20;;;1.90;;
27187;SDS011;14708;50.872;5.306;2022-09-03T02:36:11;1.75;;;1.65;;
27187;SDS011;14708;50.872;5.306;2022-09-03T02:38:42;2.10;;;1.90;;
27187;SDS011;14708;50.872;5.306;2022-09-03T02:41:08;3.03;;;1.95;;
27187;SDS011;14708;50.872;5.306;2022-09-03T02:43:45;2.40;;;2.08;;
27187;SDS011;14708;50.872;5.306;2022-09-03T02:46:22;1.60;;;1.50;;
27187;SDS011;14708;50.872;5.306;2022-09-03T02:48:51;2.40;;;1.80;;
27187;SDS011;14708;50.872;5.306;2022-09-03T02:51:18;1.73;;;1.63;;
27187;SDS011;14708;50.872;5.306;2022-09-03T02:53:43;2.45;;;1.92;;
27187;SDS011;14708;50.872;5.306;2022-09-03T02:56:10;1.98;;;1.77;;
27187;SDS011;14708;50.872;5.306;2022-09-03T02:58:36;2.38;;;1.90;;
27187;SDS011;14708;50.872;5.306;2022-09-03T03:01:01;2.20;;;2.00;;
27187;SDS011;14708;50.872;5.306;2022-09-03T03:03:28;1.60;;;1.50;;
27187;SDS011;14708;50.872;5.306;2022-09-03T03:05:54;1.85;;;1.75;;
27187;SDS011;14708;50.872;5.306;2022-09-03T03:08:23;2.13;;;1.92;;
27187;SDS011;14708;50.872;5.306;2022-09-03T03:10:51;1.67;;;1.50;;
27187;SDS011;14708;50.872;5.306;2022-09-03T03:13:20;2.15;;;1.65;;
27187;SDS011;14708;50.872;5.306;2022-09-03T03:15:46;2.13;;;1.90;;
27187;SDS011;14708;50.872;5.306;2022-09-03T03:18:13;1.77;;;1.67;;
27187;SDS011;14708;50.872;5.306;2022-09-03T03:20:41;2.27;;;1.70;;
27187;SDS011;14708;50.872;5.306;2022-09-03T03:23:07;2.22;;;1.70;;
27187;SDS011;14708;50.872;5.306;2022-09-03T03:25:35;2.28;;;1.73;;
27187;SDS011;14708;50.872;5.306;2022-09-03T03:28:02;1.90;;;1.70;;
27187;SDS011;14708;50.872;5.306;2022-09-03T03:30:29;2.33;;;1.67;;
27187;SDS011;14708;50.872;5.306;2022-09-03T03:32:56;2.40;;;1.83;;
27187;SDS011;14708;50.872;5.306;2022-09-03T03:35:22;2.45;;;1.98;;
27187;SDS011;14708;50.872;5.306;2022-09-03T03:37:48;2.20;;;1.63;;
27187;SDS011;14708;50.872;5.306;2022-09-03T03:40:14;1.95;;;1.63;;
27187;SDS011;14708;50.872;5.306;2022-09-03T03:42:40;1.88;;;1.73;;
27187;SDS011;14708;50.872;5.306;2022-09-03T03:45:06;2.22;;;1.70;;
27187;SDS011;14708;50.872;5.306;2022-09-03T03:47:34;1.85;;;1.52;;
27187;SDS011;14708;50.872;5.306;2022-09-03T03:50:00;1.95;;;1.75;;
27187;SDS011;14708;50.872;5.306;2022-09-03T03:52:27;2.00;;;1.63;;
27187;SDS011;14708;50.872;5.306;2022-09-03T03:54:52;2.00;;;1.73;;
27187;SDS011;14708;50.872;5.306;2022-09-03T03:57:18;1.90;;;1.60;;
27187;SDS011;14708;50.872;5.306;2022-09-03T03:59:45;1.85;;;1.40;;
27187;SDS011;14708;50.872;5.306;2022-09-03T04:02:11;2.28;;;1.60;;
27187;SDS011;14708;50.872;5.306;2022-09-03T04:04:38;1.67;;;1.48;;
27187;SDS011;14708;50.872;5.306;2022-09-03T04:07:03;1.70;;;1.30;;
27187;SDS011;14708;50.872;5.306;2022-09-03T04:09:29;1.70;;;1.45;;
27187;SDS011;14708;50.872;5.306;2022-09-03T04:11:54;2.50;;;1.73;;
27187;SDS011;14708;50.872;5.306;2022-09-03T04:14:23;1.40;;;1.30;;
27187;SDS011;14708;50.872;5.306;2022-09-03T04:16:50;1.92;;;1.70;;
27187;SDS011;14708;50.872;5.306;2022-09-03T04:19:16;1.65;;;1.45;;
27187;SDS011;14708;50.872;5.306;2022-09-03T04:21:42;1.80;;;1.50;;
27187;SDS011;14708;50.872;5.306;2022-09-03T04:24:08;2.25;;;1.73;;
27187;SDS011;14708;50.872;5.306;2022-09-03T04:26:34;1.83;;;1.63;;
27187;SDS011;14708;50.872;5.306;2022-09-03T04:29:01;1.50;;;1.40;;
27187;SDS011;14708;50.872;5.306;2022-09-03T04:31:28;1.70;;;1.60;;
27187;SDS011;14708;50.872;5.306;2022-09-03T04:33:54;1.58;;;1.48;;
27187;SDS011;14708;50.872;5.306;2022-09-03T04:36:20;2.05;;;1.52;;
27187;SDS011;14708;50.872;5.306;2022-09-03T04:38:48;2.03;;;1.77;;
27187;SDS011;14708;50.872;5.306;2022-09-03T04:41:16;1.58;;;1.48;;
27187;SDS011;14708;50.872;5.306;2022-09-03T04:43:43;1.70;;;1.60;;
27187;SDS011;14708;50.872;5.306;2022-09-03T04:46:10;1.42;;;1.33;;
27187;SDS011;14708;50.872;5.306;2022-09-03T04:48:37;1.55;;;1.27;;
27187;SDS011;14708;50.872;5.306;2022-09-03T04:53:38;1.60;;;1.40;;
27187;SDS011;14708;50.872;5.306;2022-09-03T04:56:15;1.65;;;1.50;;
27187;SDS011;14708;50.872;5.306;2022-09-03T04:58:42;1.52;;;1.42;;
27187;SDS011;14708;50.872;5.306;2022-09-03T05:01:10;1.60;;;1.50;;
27187;SDS011;14708;50.872;5.306;2022-09-03T05:03:36;1.50;;;1.40;;
27187;SDS011;14708;50.872;5.306;2022-09-03T05:06:02;1.85;;;1.40;;
27187;SDS011;14708;50.872;5.306;2022-09-03T05:08:32;1.88;;;1.60;;
27187;SDS011;14708;50.872;5.306;2022-09-03T05:11:02;1.50;;;1.40;;
27187;SDS011;14708;50.872;5.306;2022-09-03T05:13:28;1.50;;;1.40;;
27187;SDS011;14708;50.872;5.306;2022-09-03T05:16:13;1.70;;;1.48;;
27187;SDS011;14708;50.872;5.306;2022-09-03T05:18:39;1.83;;;1.40;;
27187;SDS011;14708;50.872;5.306;2022-09-03T05:21:13;1.50;;;1.40;;
27187;SDS011;14708;50.872;5.306;2022-09-03T05:23:41;1.58;;;1.45;;
27187;SDS011;14708;50.872;5.306;2022-09-03T05:26:09;1.98;;;1.67;;
27187;SDS011;14708;50.872;5.306;2022-09-03T05:28:43;1.70;;;1.35;;
27187;SDS011;14708;50.872;5.306;2022-09-03T05:31:10;1.55;;;1.45;;
27187;SDS011;14708;50.872;5.306;2022-09-03T05:33:44;2.08;;;1.40;;
27187;SDS011;14708;50.872;5.306;2022-09-03T05:36:12;1.67;;;1.50;;
27187;SDS011;14708;50.872;5.306;2022-09-03T05:38:40;1.92;;;1.73;;
27187;SDS011;14708;50.872;5.306;2022-09-03T05:41:07;3.10;;;1.30;;
27187;SDS011;14708;50.872;5.306;2022-09-03T05:43:34;1.95;;;1.55;;
27187;SDS011;14708;50.872;5.306;2022-09-03T05:46:01;1.42;;;1.33;;
27187;SDS011;14708;50.872;5.306;2022-09-03T05:48:29;1.27;;;1.10;;
27187;SDS011;14708;50.872;5.306;2022-09-03T05:51:08;2.33;;;1.30;;
27187;SDS011;14708;50.872;5.306;2022-09-03T05:53:37;2.03;;;1.60;;
27187;SDS011;14708;50.872;5.306;2022-09-03T05:56:08;1.33;;;1.23;;
27187;SDS011;14708;50.872;5.306;2022-09-03T05:58:36;1.77;;;1.40;;
27187;SDS011;14708;50.872;5.306;2022-09-03T06:03:47;4.00;;;1.70;;
27187;SDS011;14708;50.872;5.306;2022-09-03T06:06:26;8.77;;;1.77;;
27187;SDS011;14708;50.872;5.306;2022-09-03T06:08:55;11.23;;;1.85;;
27187;SDS011;14708;50.872;5.306;2022-09-03T06:11:22;8.95;;;1.92;;
27187;SDS011;14708;50.872;5.306;2022-09-03T06:13:57;14.00;;;2.15;;
27187;SDS011;14708;50.872;5.306;2022-09-03T06:16:27;10.88;;;2.25;;
27187;SDS011;14708;50.872;5.306;2022-09-03T06:18:54;9.50;;;2.05;;
27187;SDS011;14708;50.872;5.306;2022-09-03T06:21:20;3.63;;;1.70;;
27187;SDS011;14708;50.872;5.306;2022-09-03T06:23:49;15.70;;;2.05;;
27187;SDS011;14708;50.872;5.306;2022-09-03T06:26:21;5.28;;;1.90;;
27187;SDS011;14708;50.872;5.306;2022-09-03T06:28:47;8.70;;;1.90;;
27187;SDS011;14708;50.872;5.306;2022-09-03T06:31:14;8.07;;;1.80;;
27187;SDS011;14708;50.872;5.306;2022-09-03T06:33:41;8.60;;;2.30;;
27187;SDS011;14708;50.872;5.306;2022-09-03T06:36:11;7.85;;;1.70;;
27187;SDS011;14708;50.872;5.306;2022-09-03T06:38:38;9.20;;;2.25;;
27187;SDS011;14708;50.872;5.306;2022-09-03T06:41:08;8.00;;;2.25;;
27187;SDS011;14708;50.872;5.306;2022-09-03T06:43:35;9.35;;;2.20;;
27187;SDS011;14708;50.872;5.306;2022-09-03T06:46:03;32.85;;;7.05;;
27187;SDS011;14708;50.872;5.306;2022-09-03T06:48:37;55.10;;;11.63;;
27187;SDS011;14708;50.872;5.306;2022-09-03T06:51:05;50.10;;;9.63;;
27187;SDS011;14708;50.872;5.306;2022-09-03T06:53:37;51.37;;;10.53;;
27187;SDS011;14708;50.872;5.306;2022-09-03T06:56:05;43.55;;;7.93;;
27187;SDS011;14708;50.872;5.306;2022-09-03T06:58:36;46.20;;;9.43;;
27187;SDS011;14708;50.872;5.306;2022-09-03T07:01:07;31.13;;;6.40;;
27187;SDS011;14708;50.872;5.306;2022-09-03T07:03:33;25.60;;;5.75;;
27187;SDS011;14708;50.872;5.306;2022-09-03T07:06:01;29.48;;;5.90;;
27187;SDS011;14708;50.872;5.306;2022-09-03T07:08:29;30.63;;;5.97;;
27187;SDS011;14708;50.872;5.306;2022-09-03T07:10:56;36.55;;;5.53;;
27187;SDS011;14708;50.872;5.306;2022-09-03T07:13:34;30.17;;;5.97;;
27187;SDS011;14708;50.872;5.306;2022-09-03T07:16:01;30.40;;;5.72;;
27187;SDS011;14708;50.872;5.306;2022-09-03T07:18:38;23.75;;;4.82;;
27187;SDS011;14708;50.872;5.306;2022-09-03T07:21:05;25.27;;;4.38;;
27187;SDS011;14708;50.872;5.306;2022-09-03T07:23:33;18.92;;;3.80;;
27187;SDS011;14708;50.872;5.306;2022-09-03T07:26:01;20.45;;;4.10;;
27187;SDS011;14708;50.872;5.306;2022-09-03T07:31:00;18.40;;;4.03;;
27187;SDS011;14708;50.872;5.306;2022-09-03T07:33:28;16.00;;;4.07;;
27187;SDS011;14708;50.872;5.306;2022-09-03T07:35:55;13.95;;;3.55;;
27187;SDS011;14708;50.872;5.306;2022-09-03T07:38:20;15.35;;;3.03;;
27187;SDS011;14708;50.872;5.306;2022-09-03T07:40:48;9.75;;;3.05;;
27187;SDS011;14708;50.872;5.306;2022-09-03T07:43:21;19.15;;;3.35;;
27187;SDS011;14708;50.872;5.306;2022-09-03T07:45:49;24.20;;;3.63;;
27187;SDS011;14708;50.872;5.306;2022-09-03T07:48:15;17.70;;;3.43;;
27187;SDS011;14708;50.872;5.306;2022-09-03T07:50:41;14.05;;;3.47;;
27187;SDS011;14708;50.872;5.306;2022-09-03T07:53:07;14.40;;;2.80;;
27187;SDS011;14708;50.872;5.306;2022-09-03T07:55:33;6.43;;;2.70;;
27187;SDS011;14708;50.872;5.306;2022-09-03T07:57:58;11.13;;;3.25;;
27187;SDS011;14708;50.872;5.306;2022-09-03T08:00:24;10.13;;;2.92;;
27187;SDS011;14708;50.872;5.306;2022-09-03T08:02:50;9.88;;;2.90;;
27187;SDS011;14708;50.872;5.306;2022-09-03T08:05:16;9.15;;;3.00;;
27187;SDS011;14708;50.872;5.306;2022-09-03T08:07:45;12.83;;;3.17;;
27187;SDS011;14708;50.872;5.306;2022-09-03T08:10:11;8.43;;;2.65;;
27187;SDS011;14708;50.872;5.306;2022-09-03T08:12:37;13.57;;;2.95;;
27187;SDS011;14708;50.872;5.306;2022-09-03T08:15:03;7.90;;;2.30;;
27187;SDS011;14708;50.872;5.306;2022-09-03T08:17:29;11.95;;;2.58;;
27187;SDS011;14708;50.872;5.306;2022-09-03T08:19:55;11.15;;;3.00;;
27187;SDS011;14708;50.872;5.306;2022-09-03T08:22:22;12.10;;;2.92;;
27187;SDS011;14708;50.872;5.306;2022-09-03T08:24:49;8.75;;;2.40;;
27187;SDS011;14708;50.872;5.306;2022-09-03T08:27:15;8.38;;;2.33;;
27187;SDS011;14708;50.872;5.306;2022-09-03T08:29:40;4.28;;;2.45;;
27187;SDS011;14708;50.872;5.306;2022-09-03T08:32:06;9.98;;;2.60;;
27187;SDS011;14708;50.872;5.306;2022-09-03T08:34:32;15.80;;;2.78;;
27187;SDS011;14708;50.872;5.306;2022-09-03T08:36:57;7.60;;;2.42;;
27187;SDS011;14708;50.872;5.306;2022-09-03T08:39:25;15.07;;;2.47;;
27187;SDS011;14708;50.872;5.306;2022-09-03T08:45:11;13.60;;;2.45;;
27187;SDS011;14708;50.872;5.306;2022-09-03T08:47:43;9.82;;;2.40;;
27187;SDS011;14708;50.872;5.306;2022-09-03T08:50:31;6.53;;;2.40;;
27187;SDS011;14708;50.872;5.306;2022-09-03T08:53:16;10.55;;;2.33;;
27187;SDS011;14708;50.872;5.306;2022-09-03T08:56:07;10.55;;;2.55;;
27187;SDS011;14708;50.872;5.306;2022-09-03T08:58:36;7.57;;;2.78;;
27187;SDS011;14708;50.872;5.306;2022-09-03T09:14:03;4.78;;;2.30;;
27187;SDS011;14708;50.872;5.306;2022-09-03T09:25:09;9.73;;;2.58;;
27187;SDS011;14708;50.872;5.306;2022-09-03T09:27:40;5.32;;;2.10;;
27187;SDS011;14708;50.872;5.306;2022-09-03T09:30:13;7.57;;;2.38;;
27187;SDS011;14708;50.872;5.306;2022-09-03T09:32:40;10.27;;;2.50;;
27187;SDS011;14708;50.872;5.306;2022-09-03T09:35:09;5.93;;;2.20;;
27187;SDS011;14708;50.872;5.306;2022-09-03T09:37:45;7.28;;;2.10;;
27187;SDS011;14708;50.872;5.306;2022-09-03T09:40:29;4.53;;;2.35;;
27187;SDS011;14708;50.872;5.306;2022-09-03T09:45:30;3.22;;;2.30;;
27187;SDS011;14708;50.872;5.306;2022-09-03T09:47:59;9.10;;;2.28;;
27187;SDS011;14708;50.872;5.306;2022-09-03T09:50:26;9.02;;;2.60;;
27187;SDS011;14708;50.872;5.306;2022-09-03T09:52:59;8.65;;;2.35;;
27187;SDS011;14708;50.872;5.306;2022-09-03T09:55:30;9.40;;;2.40;;
27187;SDS011;14708;50.872;5.306;2022-09-03T09:58:07;6.28;;;2.22;;
27187;SDS011;14708;50.872;5.306;2022-09-03T10:00:34;13.07;;;2.53;;
27187;SDS011;14708;50.872;5.306;2022-09-03T10:03:04;18.27;;;3.40;;
27187;SDS011;14708;50.872;5.306;2022-09-03T10:05:34;11.55;;;3.25;;
27187;SDS011;14708;50.872;5.306;2022-09-03T10:08:04;30.97;;;4.37;;
27187;SDS011;14708;50.872;5.306;2022-09-03T10:10:35;24.67;;;3.97;;
27187;SDS011;14708;50.872;5.306;2022-09-03T10:13:09;19.60;;;3.47;;
27187;SDS011;14708;50.872;5.306;2022-09-03T10:15:49;26.58;;;4.32;;
27187;SDS011;14708;50.872;5.306;2022-09-03T10:18:29;12.65;;;3.63;;
27187;SDS011;14708;50.872;5.306;2022-09-03T10:23:50;21.50;;;3.70;;
27187;SDS011;14708;50.872;5.306;2022-09-03T10:26:20;16.00;;;3.40;;
27187;SDS011;14708;50.872;5.306;2022-09-03T10:28:54;17.15;;;3.63;;
27187;SDS011;14708;50.872;5.306;2022-09-03T10:39:51;8.73;;;3.33;;
27187;SDS011;14708;50.872;5.306;2022-09-03T10:42:43;11.73;;;3.30;;
27187;SDS011;14708;50.872;5.306;2022-09-03T10:45:54;9.25;;;3.20;;
27187;SDS011;14708;50.872;5.306;2022-09-03T10:48:38;8.48;;;3.33;;
27187;SDS011;14708;50.872;5.306;2022-09-03T10:51:34;10.52;;;2.88;;
27187;SDS011;14708;50.872;5.306;2022-09-03T10:54:27;10.07;;;3.70;;
27187;SDS011;14708;50.872;5.306;2022-09-03T10:57:38;8.30;;;3.05;;
27187;SDS011;14708;50.872;5.306;2022-09-03T11:00:06;9.60;;;3.60;;
27187;SDS011;14708;50.872;5.306;2022-09-03T11:05:57;12.68;;;3.67;;
27187;SDS011;14708;50.872;5.306;2022-09-03T11:08:35;11.15;;;3.30;;
27187;SDS011;14708;50.872;5.306;2022-09-03T11:11:10;9.98;;;3.05;;
27187;SDS011;14708;50.872;5.306;2022-09-03T11:13:45;10.05;;;3.50;;
27187;SDS011;14708;50.872;5.306;2022-09-03T11:16:19;15.52;;;3.78;;
27187;SDS011;14708;50.872;5.306;2022-09-03T11:19:11;18.13;;;3.50;;
27187;SDS011;14708;50.872;5.306;2022-09-03T11:21:39;12.70;;;3.63;;
27187;SDS011;14708;50.872;5.306;2022-09-03T11:26:36;11.18;;;3.08;;
27187;SDS011;14708;50.872;5.306;2022-09-03T11:29:05;13.63;;;3.42;;
27187;SDS011;14708;50.872;5.306;2022-09-03T11:32:00;8.38;;;3.10;;
27187;SDS011;14708;50.872;5.306;2022-09-03T11:34:53;9.18;;;3.55;;
27187;SDS011;14708;50.872;5.306;2022-09-03T11:37:23;5.72;;;3.17;;
27187;SDS011;14708;50.872;5.306;2022-09-03T11:42:31;12.82;;;3.35;;
27187;SDS011;14708;50.872;5.306;2022-09-03T11:45:12;6.32;;;3.22;;
27187;SDS011;14708;50.872;5.306;2022-09-03T11:51:17;9.60;;;3.38;;
27187;SDS011;14708;50.872;5.306;2022-09-03T11:53:57;7.65;;;3.10;;
27187;SDS011;14708;50.872;5.306;2022-09-03T11:56:24;7.17;;;3.17;;
27187;SDS011;14708;50.872;5.306;2022-09-03T11:58:58;11.60;;;3.60;;
27187;SDS011;14708;50.872;5.306;2022-09-03T12:02:04;7.75;;;3.85;;
27187;SDS011;14708;50.872;5.306;2022-09-03T12:07:43;10.95;;;3.83;;
27187;SDS011;14708;50.872;5.306;2022-09-03T12:10:35;9.40;;;3.95;;
27187;SDS011;14708;50.872;5.306;2022-09-03T12:18:39;7.03;;;3.10;;
27187;SDS011;14708;50.872;5.306;2022-09-03T12:21:07;12.40;;;3.90;;
27187;SDS011;14708;50.872;5.306;2022-09-03T12:23:41;6.88;;;3.50;;
27187;SDS011;14708;50.872;5.306;2022-09-03T12:26:12;12.45;;;3.53;;
27187;SDS011;14708;50.872;5.306;2022-09-03T12:28:41;6.60;;;3.10;;
27187;SDS011;14708;50.872;5.306;2022-09-03T12:36:23;6.75;;;3.72;;
27187;SDS011;14708;50.872;5.306;2022-09-03T12:38:49;7.68;;;3.60;;
27187;SDS011;14708;50.872;5.306;2022-09-03T12:41:19;6.72;;;2.78;;
27187;SDS011;14708;50.872;5.306;2022-09-03T12:43:50;8.30;;;2.90;;
27187;SDS011;14708;50.872;5.306;2022-09-03T12:46:27;6.97;;;3.38;;
27187;SDS011;14708;50.872;5.306;2022-09-03T12:48:59;8.57;;;3.35;;
27187;SDS011;14708;50.872;5.306;2022-09-03T12:51:36;6.00;;;3.45;;
27187;SDS011;14708;50.872;5.306;2022-09-03T12:54:04;8.27;;;3.65;;
27187;SDS011;14708;50.872;5.306;2022-09-03T12:56:33;6.57;;;2.97;;
27187;SDS011;14708;50.872;5.306;2022-09-03T12:59:03;7.80;;;3.45;;
27187;SDS011;14708;50.872;5.306;2022-09-03T13:01:44;7.35;;;3.30;;
27187;SDS011;14708;50.872;5.306;2022-09-03T13:04:14;11.90;;;3.25;;
27187;SDS011;14708;50.872;5.306;2022-09-03T13:06:52;6.97;;;3.50;;
27187;SDS011;14708;50.872;5.306;2022-09-03T13:09:48;12.70;;;3.25;;
27187;SDS011;14708;50.872;5.306;2022-09-03T13:12:20;15.45;;;4.10;;
27187;SDS011;14708;50.872;5.306;2022-09-03T13:15:07;10.20;;;3.47;;
27187;SDS011;14708;50.872;5.306;2022-09-03T13:20:32;10.55;;;3.35;;
27187;SDS011;14708;50.872;5.306;2022-09-03T13:25:29;9.80;;;3.60;;
27187;SDS011;14708;50.872;5.306;2022-09-03T13:33:23;10.35;;;3.05;;
27187;SDS011;14708;50.872;5.306;2022-09-03T13:36:02;12.88;;;3.40;;
27187;SDS011;14708;50.872;5.306;2022-09-03T13:38:31;11.23;;;3.28;;
27187;SDS011;14708;50.872;5.306;2022-09-03T13:41:19;6.43;;;3.45;;
27187;SDS011;14708;50.872;5.306;2022-09-03T13:44:10;10.20;;;3.50;;
27187;SDS011;14708;50.872;5.306;2022-09-03T13:46:45;9.77;;;3.25;;
27187;SDS011;14708;50.872;5.306;2022-09-03T13:55:19;9.27;;;3.00;;
27187;SDS011;14708;50.872;5.306;2022-09-03T13:57:51;5.82;;;2.53;;
27187;SDS011;14708;50.872;5.306;2022-09-03T14:00:22;7.65;;;3.13;;
27187;SDS011;14708;50.872;5.306;2022-09-03T14:06:10;9.90;;;3.10;;
27187;SDS011;14708;50.872;5.306;2022-09-03T14:08:56;7.03;;;2.83;;
27187;SDS011;14708;50.872;5.306;2022-09-03T14:20:28;6.70;;;2.83;;
27187;SDS011;14708;50.872;5.306;2022-09-03T14:25:22;6.40;;;3.20;;
27187;SDS011;14708;50.872;5.306;2022-09-03T14:27:50;3.25;;;2.53;;
27187;SDS011;14708;50.872;5.306;2022-09-03T14:30:18;6.85;;;2.75;;
27187;SDS011;14708;50.872;5.306;2022-09-03T14:33:24;9.10;;;2.80;;
27187;SDS011;14708;50.872;5.306;2022-09-03T14:49:38;5.88;;;2.85;;
27187;SDS011;14708;50.872;5.306;2022-09-03T15:11:46;8.90;;;2.92;;
27187;SDS011;14708;50.872;5.306;2022-09-03T15:14:34;9.23;;;4.03;;
27187;SDS011;14708;50.872;5.306;2022-09-03T15:17:16;4.28;;;2.95;;
27187;SDS011;14708;50.872;5.306;2022-09-03T15:23:11;5.57;;;3.05;;
27187;SDS011;14708;50.872;5.306;2022-09-03T15:36:56;6.45;;;2.88;;
27187;SDS011;14708;50.872;5.306;2022-09-03T15:39:27;6.72;;;3.03;;
27187;SDS011;14708;50.872;5.306;2022-09-03T15:44:34;3.70;;;2.80;;
27187;SDS011;14708;50.872;5.306;2022-09-03T15:47:26;6.47;;;2.78;;
27187;SDS011;14708;50.872;5.306;2022-09-03T15:50:01;5.90;;;2.90;;
27187;SDS011;14708;50.872;5.306;2022-09-03T15:52:44;4.50;;;2.88;;
27187;SDS011;14708;50.872;5.306;2022-09-03T16:03:38;6.88;;;2.55;;
27187;SDS011;14708;50.872;5.306;2022-09-03T16:06:51;8.82;;;2.33;;
27187;SDS011;14708;50.872;5.306;2022-09-03T16:14:34;9.52;;;3.08;;
27187;SDS011;14708;50.872;5.306;2022-09-03T16:20:16;6.70;;;2.73;;
27187;SDS011;14708;50.872;5.306;2022-09-03T16:22:50;3.70;;;2.55;;
27187;SDS011;14708;50.872;5.306;2022-09-03T16:25:51;6.03;;;2.70;;
27187;SDS011;14708;50.872;5.306;2022-09-03T16:28:30;5.88;;;3.05;;
27187;SDS011;14708;50.872;5.306;2022-09-03T16:31:26;5.97;;;2.80;;
27187;SDS011;14708;50.872;5.306;2022-09-03T16:34:09;4.00;;;2.58;;
27187;SDS011;14708;50.872;5.306;2022-09-03T16:48:08;3.95;;;2.70;;
27187;SDS011;14708;50.872;5.306;2022-09-03T16:51:18;4.68;;;2.50;;
27187;SDS011;14708;50.872;5.306;2022-09-03T17:02:21;9.60;;;2.67;;
27187;SDS011;14708;50.872;5.306;2022-09-03T17:18:52;9.27;;;2.88;;
27187;SDS011;14708;50.872;5.306;2022-09-03T17:21:31;8.02;;;2.83;;
27187;SDS011;14708;50.872;5.306;2022-09-03T17:24:08;5.72;;;3.30;;
27187;SDS011;14708;50.872;5.306;2022-09-03T17:44:03;4.97;;;2.92;;
27187;SDS011;14708;50.872;5.306;2022-09-03T17:52:19;7.70;;;2.65;;
27187;SDS011;14708;50.872;5.306;2022-09-03T17:54:54;5.05;;;2.80;;
27187;SDS011;14708;50.872;5.306;2022-09-03T17:57:25;5.72;;;2.90;;
27187;SDS011;14708;50.872;5.306;2022-09-03T18:00:03;7.78;;;2.63;;
27187;SDS011;14708;50.872;5.306;2022-09-03T18:02:53;5.57;;;2.50;;
27187;SDS011;14708;50.872;5.306;2022-09-03T18:08:19;4.65;;;2.40;;
27187;SDS011;14708;50.872;5.306;2022-09-03T18:13:59;6.57;;;3.15;;
27187;SDS011;14708;50.872;5.306;2022-09-03T18:16:33;3.78;;;2.50;;
27187;SDS011;14708;50.872;5.306;2022-09-03T18:21:42;5.75;;;2.83;;
27187;SDS011;14708;50.872;5.306;2022-09-03T18:24:30;4.22;;;2.55;;
27187;SDS011;14708;50.872;5.306;2022-09-03T18:27:28;6.45;;;3.00;;
27187;SDS011;14708;50.872;5.306;2022-09-03T18:30:15;8.23;;;2.40;;
27187;SDS011;14708;50.872;5.306;2022-09-03T18:32:59;4.03;;;2.47;;
27187;SDS011;14708;50.872;5.306;2022-09-03T18:35:44;4.13;;;2.42;;
27187;SDS011;14708;50.872;5.306;2022-09-03T18:38:30;7.43;;;2.38;;
27187;SDS011;14708;50.872;5.306;2022-09-03T18:41:23;6.40;;;3.03;;
27187;SDS011;14708;50.872;5.306;2022-09-03T18:47:31;7.28;;;2.50;;
27187;SDS011;14708;50.872;5.306;2022-09-03T18:50:46;4.78;;;2.40;;
27187;SDS011;14708;50.872;5.306;2022-09-03T18:59:54;7.22;;;2.72;;
27187;SDS011;14708;50.872;5.306;2022-09-03T19:05:41;3.45;;;2.13;;
27187;SDS011;14708;50.872;5.306;2022-09-03T19:14:48;4.55;;;2.42;;
27187;SDS011;14708;50.872;5.306;2022-09-03T19:23:56;4.25;;;2.22;;
27187;SDS011;14708;50.872;5.306;2022-09-03T19:27:01;5.47;;;2.25;;
27187;SDS011;14708;50.872;5.306;2022-09-03T19:32:57;6.55;;;2.75;;
27187;SDS011;14708;50.872;5.306;2022-09-03T19:36:02;5.10;;;2.67;;
27187;SDS011;14708;50.872;5.306;2022-09-03T19:39:35;4.37;;;2.40;;
27187;SDS011;14708;50.872;5.306;2022-09-03T19:45:34;2.60;;;2.03;;
27187;SDS011;14708;50.872;5.306;2022-09-03T19:51:36;4.47;;;2.67;;
27187;SDS011;14708;50.872;5.306;2022-09-03T19:54:26;4.68;;;2.33;;
27187;SDS011;14708;50.872;5.306;2022-09-03T19:57:12;7.18;;;2.42;;
27187;SDS011;14708;50.872;5.306;2022-09-03T19:59:58;6.60;;;2.38;;
27187;SDS011;14708;50.872;5.306;2022-09-03T20:02:46;4.30;;;2.30;;
27187;SDS011;14708;50.872;5.306;2022-09-03T20:05:31;4.25;;;2.58;;
27187;SDS011;14708;50.872;5.306;2022-09-03T20:08:16;4.20;;;2.17;;
27187;SDS011;14708;50.872;5.306;2022-09-03T20:11:04;4.90;;;2.67;;
27187;SDS011;14708;50.872;5.306;2022-09-03T20:13:31;3.30;;;2.33;;
27187;SDS011;14708;50.872;5.306;2022-09-03T20:16:27;3.45;;;2.03;;
27187;SDS011;14708;50.872;5.306;2022-09-03T20:19:10;4.85;;;2.28;;
27187;SDS011;14708;50.872;5.306;2022-09-03T20:25:02;5.10;;;2.28;;
27187;SDS011;14708;50.872;5.306;2022-09-03T20:27:59;5.20;;;2.00;;
27187;SDS011;14708;50.872;5.306;2022-09-03T20:30:47;5.20;;;2.50;;
27187;SDS011;14708;50.872;5.306;2022-09-03T20:36:18;3.92;;;1.98;;
27187;SDS011;14708;50.872;5.306;2022-09-03T20:38:54;3.35;;;2.42;;
27187;SDS011;14708;50.872;5.306;2022-09-03T20:41:34;4.90;;;2.47;;
27187;SDS011;14708;50.872;5.306;2022-09-03T20:52:17;4.30;;;2.60;;
27187;SDS011;14708;50.872;5.306;2022-09-03T20:55:03;4.32;;;1.90;;
27187;SDS011;14708;50.872;5.306;2022-09-03T20:57:39;3.85;;;2.17;;
27187;SDS011;14708;50.872;5.306;2022-09-03T21:00:13;4.90;;;2.40;;
27187;SDS011;14708;50.872;5.306;2022-09-03T21:11:06;11.50;;;2.28;;
27187;SDS011;14708;50.872;5.306;2022-09-03T21:19:10;3.58;;;2.13;;
27187;SDS011;14708;50.872;5.306;2022-09-03T21:22:03;5.40;;;2.72;;
27187;SDS011;14708;50.872;5.306;2022-09-03T21:24:54;4.32;;;2.75;;
27187;SDS011;14708;50.872;5.306;2022-09-03T21:27:29;3.65;;;2.17;;
27187;SDS011;14708;50.872;5.306;2022-09-03T21:30:14;4.88;;;2.10;;